sensor_id;sensor_type;location;lat;lon;timestamp;pressure;altitude;pressure_sealevel;temperature;humidity
68489;BME280;55481;48.764;8.936;2023-05-20T00:01:40;97130;;;10.1;65.5
68489;BME280;55481;48.764;8.936;2023-05-20T00:04:10;97130;;;10.1;65.5
68489;BME280;55481;48.764;8.936;2023-05-20T00:06:44;97130;;;10;65.5
68489;BME280;55481;48.764;8.936;2023-05-20T00:09:12;97130;;;10;65.5
68489;BME280;55481;48.764;8.936;2023-05-20T00:11:44;97120;;;9.9;66
68489;BME280;55481;48.764;8.936;2023-05-20T00:14:14;97130;;;9.9;65.5
68489;BME280;55481;48.764;8.936;2023-05-20T00:16:45;97120;;;9.9;65.5
68489;BME280;55481;48.764;8.936;2023-05-20T00:19:23;97120;;;10.1;65
68489;BME280;55481;48.764;8.936;2023-05-20T00:21:54;97120;;;10.2;65
68489;BME280;55481;48.764;8.936;2023-05-20T00:29:27;97120;;;10.2;65.5
68489;BME280;55481;48.764;8.936;2023-05-20T00:31:57;97120;;;10.3;65
68489;BME280;55481;48.764;8.936;2023-05-20T00:39:31;97120;;;10.4;65
68489;BME280;55481;48.764;8.936;2023-05-20T00:42:01;97120;;;10.4;65
68489;BME280;55481;48.764;8.936;2023-05-20T00:44:30;97120;;;10.3;65.5
68489;BME280;55481;48.764;8.936;2023-05-20T00:47:01;97130;;;10.4;65.5
68489;BME280;55481;48.764;8.936;2023-05-20T00:49:40;97120;;;10.3;65.5
68489;BME280;55481;48.764;8.936;2023-05-20T00:54:31;97120;;;10.2;66
68489;BME280;55481;48.764;8.936;2023-05-20T00:57:02;97120;;;10.2;66
68489;BME280;55481;48.764;8.936;2023-05-20T01:04:44;97110;;;10.3;65.5
68489;BME280;55481;48.764;8.936;2023-05-20T01:07:15;97110;;;10.3;65.5
68489;BME280;55481;48.764;8.936;2023-05-20T01:12:09;97100;;;10.4;65.5
68489;BME280;55481;48.764;8.936;2023-05-20T01:14:49;97110;;;10.5;65.5
68489;BME280;55481;48.764;8.936;2023-05-20T01:17:05;97110;;;10.5;65.5
68489;BME280;55481;48.764;8.936;2023-05-20T01:19:44;97110;;;10.6;65
68489;BME280;55481;48.764;8.936;2023-05-20T01:24:24;97100;;;10.7;65
68489;BME280;55481;48.764;8.936;2023-05-20T01:26:55;97100;;;10.7;65
68489;BME280;55481;48.764;8.936;2023-05-20T01:29:25;97100;;;10.9;64.5
68489;BME280;55481;48.764;8.936;2023-05-20T01:31:56;97100;;;11;64.5
68489;BME280;55481;48.764;8.936;2023-05-20T01:34:26;97100;;;10.9;65
68489;BME280;55481;48.764;8.936;2023-05-20T01:37:20;97090;;;10.9;65
68489;BME280;55481;48.764;8.936;2023-05-20T01:39:50;97090;;;10.9;65
68489;BME280;55481;48.764;8.936;2023-05-20T01:42:21;97090;;;11;65
68489;BME280;55481;48.764;8.936;2023-05-20T01:44:52;97090;;;10.9;65
68489;BME280;55481;48.764;8.936;2023-05-20T01:49:40;97090;;;10.8;65.5
68489;BME280;55481;48.764;8.936;2023-05-20T01:52:11;97090;;;10.9;65
68489;BME280;55481;48.764;8.936;2023-05-20T01:54:41;97090;;;11;65
68489;BME280;55481;48.764;8.936;2023-05-20T01:59:30;97090;;;11;65
68489;BME280;55481;48.764;8.936;2023-05-20T02:02:00;97090;;;10.9;65
68489;BME280;55481;48.764;8.936;2023-05-20T02:09:33;97080;;;11;65
68489;BME280;55481;48.764;8.936;2023-05-20T02:12:02;97080;;;11;65
68489;BME280;55481;48.764;8.936;2023-05-20T02:14:33;97080;;;10.9;65.5
68489;BME280;55481;48.764;8.936;2023-05-20T02:17:04;97080;;;10.9;65.5
68489;BME280;55481;48.764;8.936;2023-05-20T02:19:34;97070;;;10.9;65
68489;BME280;55481;48.764;8.936;2023-05-20T02:22:05;97070;;;10.8;65.5
68489;BME280;55481;48.764;8.936;2023-05-20T02:24:36;97080;;;10.7;66
68489;BME280;55481;48.764;8.936;2023-05-20T02:27:05;97080;;;10.8;65.5
68489;BME280;55481;48.764;8.936;2023-05-20T02:29:36;97080;;;10.9;65.5
68489;BME280;55481;48.764;8.936;2023-05-20T02:42:19;97070;;;10.8;65.5
68489;BME280;55481;48.764;8.936;2023-05-20T02:44:49;97070;;;10.8;65.5
68489;BME280;55481;48.764;8.936;2023-05-20T02:47:20;97070;;;10.9;65.5
68489;BME280;55481;48.764;8.936;2023-05-20T02:52:09;97070;;;10.9;65.5
68489;BME280;55481;48.764;8.936;2023-05-20T03:02:11;97080;;;10.7;66
68489;BME280;55481;48.764;8.936;2023-05-20T03:04:41;97080;;;10.9;65.5
68489;BME280;55481;48.764;8.936;2023-05-20T03:07:12;97080;;;11;65.5
68489;BME280;55481;48.764;8.936;2023-05-20T03:10:14;97080;;;11;65.5
68489;BME280;55481;48.764;8.936;2023-05-20T03:12:36;97070;;;11;65.5
68489;BME280;55481;48.764;8.936;2023-05-20T03:15:07;97080;;;11;65.5
68489;BME280;55481;48.764;8.936;2023-05-20T03:19:57;97080;;;11;65.5
68489;BME280;55481;48.764;8.936;2023-05-20T03:22:26;97080;;;11.1;65.5
68489;BME280;55481;48.764;8.936;2023-05-20T03:24:56;97070;;;11.1;65.5
68489;BME280;55481;48.764;8.936;2023-05-20T03:27:15;97070;;;11.2;65
68489;BME280;55481;48.764;8.936;2023-05-20T03:29:46;97060;;;11.3;65
68489;BME280;55481;48.764;8.936;2023-05-20T03:32:16;97060;;;11.2;65
68489;BME280;55481;48.764;8.936;2023-05-20T03:34:47;97070;;;11.2;65.5
68489;BME280;55481;48.764;8.936;2023-05-20T03:37:17;97070;;;11.1;65.5
68489;BME280;55481;48.764;8.936;2023-05-20T03:39:48;97070;;;11.1;65.5
68489;BME280;55481;48.764;8.936;2023-05-20T03:42:18;97080;;;11.2;65.5
68489;BME280;55481;48.764;8.936;2023-05-20T03:44:49;97080;;;11.1;65.5
68489;BME280;55481;48.764;8.936;2023-05-20T03:47:31;97080;;;11.1;66
68489;BME280;55481;48.764;8.936;2023-05-20T03:50:01;97080;;;11.2;65.5
68489;BME280;55481;48.764;8.936;2023-05-20T03:52:31;97080;;;11.3;65.5
68489;BME280;55481;48.764;8.936;2023-05-20T03:54:50;97080;;;11.2;65.5
68489;BME280;55481;48.764;8.936;2023-05-20T03:57:20;97080;;;11.2;65.5
68489;BME280;55481;48.764;8.936;2023-05-20T03:59:51;97080;;;11.3;65.5
68489;BME280;55481;48.764;8.936;2023-05-20T04:02:21;97080;;;11.4;65.5
68489;BME280;55481;48.764;8.936;2023-05-20T04:04:52;97080;;;11.4;65.5
68489;BME280;55481;48.764;8.936;2023-05-20T04:07:23;97070;;;11.3;65.5
68489;BME280;55481;48.764;8.936;2023-05-20T04:09:53;97070;;;11.2;65.5
68489;BME280;55481;48.764;8.936;2023-05-20T04:12:24;97070;;;11.1;66
68489;BME280;55481;48.764;8.936;2023-05-20T04:22:46;97070;;;11.1;66
68489;BME280;55481;48.764;8.936;2023-05-20T04:27:37;97070;;;11.3;66
68489;BME280;55481;48.764;8.936;2023-05-20T04:32:49;97060;;;11.4;65.5
68489;BME280;55481;48.764;8.936;2023-05-20T04:35:19;97060;;;11.4;65.5
68489;BME280;55481;48.764;8.936;2023-05-20T04:40:10;97060;;;11.4;65.5
68489;BME280;55481;48.764;8.936;2023-05-20T04:42:40;97050;;;11.4;65.5
68489;BME280;55481;48.764;8.936;2023-05-20T04:45:19;97050;;;11.5;65.5
68489;BME280;55481;48.764;8.936;2023-05-20T04:47:49;97050;;;11.5;65.5
68489;BME280;55481;48.764;8.936;2023-05-20T04:50:21;97050;;;11.6;65.5
68489;BME280;55481;48.764;8.936;2023-05-20T04:53:01;97050;;;11.5;65.5
68489;BME280;55481;48.764;8.936;2023-05-20T04:55:32;97050;;;11.6;65.5
68489;BME280;55481;48.764;8.936;2023-05-20T04:57:53;97050;;;11.7;65.5
68489;BME280;55481;48.764;8.936;2023-05-20T05:05:14;97050;;;11.9;65
68489;BME280;55481;48.764;8.936;2023-05-20T05:10:14;97050;;;12.1;65
68489;BME280;55481;48.764;8.936;2023-05-20T05:12:45;97050;;;12.2;64.5
68489;BME280;55481;48.764;8.936;2023-05-20T05:15:31;97050;;;12.2;64.5
68489;BME280;55481;48.764;8.936;2023-05-20T05:17:44;97050;;;12.4;64.5
68489;BME280;55481;48.764;8.936;2023-05-20T05:22:34;97040;;;12.3;65
68489;BME280;55481;48.764;8.936;2023-05-20T05:25:05;97040;;;12.5;64.5
68489;BME280;55481;48.764;8.936;2023-05-20T05:27:35;97040;;;12.6;64.5
68489;BME280;55481;48.764;8.936;2023-05-20T05:30:06;97030;;;12.7;64
68489;BME280;55481;48.764;8.936;2023-05-20T05:32:36;97030;;;12.6;64.5
68489;BME280;55481;48.764;8.936;2023-05-20T05:42:58;97020;;;12.6;65
68489;BME280;55481;48.764;8.936;2023-05-20T05:45:19;97030;;;12.7;64.5
68489;BME280;55481;48.764;8.936;2023-05-20T05:47:49;97030;;;13;64
68489;BME280;55481;48.764;8.936;2023-05-20T05:53:01;97020;;;13.2;64
68489;BME280;55481;48.764;8.936;2023-05-20T05:55:32;97010;;;13.3;64
68489;BME280;55481;48.764;8.936;2023-05-20T06:00:22;97030;;;13.3;64
68489;BME280;55481;48.764;8.936;2023-05-20T06:02:52;97020;;;13.4;64
68489;BME280;55481;48.764;8.936;2023-05-20T06:05:32;97020;;;13.6;63.5
68489;BME280;55481;48.764;8.936;2023-05-20T06:08:02;97020;;;13.7;63.5
68489;BME280;55481;48.764;8.936;2023-05-20T06:12:52;97010;;;13.9;63.5
68489;BME280;55481;48.764;8.936;2023-05-20T06:15:22;97020;;;13.9;63.5
68489;BME280;55481;48.764;8.936;2023-05-20T06:17:53;97020;;;14;63.5
68489;BME280;55481;48.764;8.936;2023-05-20T06:20:28;97020;;;14;63.5
68489;BME280;55481;48.764;8.936;2023-05-20T06:22:53;97010;;;14.1;63.5
68489;BME280;55481;48.764;8.936;2023-05-20T06:25:23;97010;;;14;63.5
68489;BME280;55481;48.764;8.936;2023-05-20T06:27:53;97010;;;14;63.5
68489;BME280;55481;48.764;8.936;2023-05-20T06:30:12;97010;;;14.1;63.5
68489;BME280;55481;48.764;8.936;2023-05-20T06:32:43;97000;;;14.3;63
68489;BME280;55481;48.764;8.936;2023-05-20T06:35:13;97000;;;14.4;63
68489;BME280;55481;48.764;8.936;2023-05-20T06:37:43;97000;;;14.3;63.5
68489;BME280;55481;48.764;8.936;2023-05-20T06:40:14;97000;;;14.4;63.5
68489;BME280;55481;48.764;8.936;2023-05-20T06:42:44;97000;;;14.2;63.5
68489;BME280;55481;48.764;8.936;2023-05-20T06:45:16;97000;;;14.3;63.5
68489;BME280;55481;48.764;8.936;2023-05-20T06:47:45;96990;;;14.4;63.5
68489;BME280;55481;48.764;8.936;2023-05-20T06:50:16;96990;;;14.5;63.5
68489;BME280;55481;48.764;8.936;2023-05-20T06:57:47;96990;;;14.7;63
68489;BME280;55481;48.764;8.936;2023-05-20T07:00:19;96990;;;14.9;63
68489;BME280;55481;48.764;8.936;2023-05-20T07:02:51;96990;;;15.1;62.5
68489;BME280;55481;48.764;8.936;2023-05-20T07:05:19;96990;;;15.2;62.5
68489;BME280;55481;48.764;8.936;2023-05-20T07:08:18;96980;;;15.2;62.5
68489;BME280;55481;48.764;8.936;2023-05-20T07:10:31;96970;;;15.1;63
68489;BME280;55481;48.764;8.936;2023-05-20T07:13:01;96970;;;15.1;63
68489;BME280;55481;48.764;8.936;2023-05-20T07:15:31;96960;;;15.3;63
68489;BME280;55481;48.764;8.936;2023-05-20T07:18:01;96960;;;15.3;63
68489;BME280;55481;48.764;8.936;2023-05-20T07:20:31;96960;;;15.4;62.5
68489;BME280;55481;48.764;8.936;2023-05-20T07:23:02;96960;;;15.6;62.5
68489;BME280;55481;48.764;8.936;2023-05-20T07:32:52;96950;;;16.4;61.5
68489;BME280;55481;48.764;8.936;2023-05-20T07:35:22;96940;;;16.8;60.5
68489;BME280;55481;48.764;8.936;2023-05-20T07:37:53;96950;;;16.6;61.5
68489;BME280;55481;48.764;8.936;2023-05-20T07:40:23;96950;;;16.4;62
68489;BME280;55481;48.764;8.936;2023-05-20T07:42:54;96950;;;16.5;62
68489;BME280;55481;48.764;8.936;2023-05-20T07:45:24;96950;;;16.4;62
68489;BME280;55481;48.764;8.936;2023-05-20T07:47:55;96950;;;16.1;63
68489;BME280;55481;48.764;8.936;2023-05-20T07:58:17;96940;;;16.8;61.5
68489;BME280;55481;48.764;8.936;2023-05-20T08:00:38;96940;;;16.5;62.5
68489;BME280;55481;48.764;8.936;2023-05-20T08:03:08;96930;;;16.6;62
68489;BME280;55481;48.764;8.936;2023-05-20T08:05:40;96930;;;16.5;62.5
68489;BME280;55481;48.764;8.936;2023-05-20T08:08:08;96930;;;16.7;62.5
68489;BME280;55481;48.764;8.936;2023-05-20T08:10:38;96930;;;17.6;60.5
68489;BME280;55481;48.764;8.936;2023-05-20T08:12:58;96920;;;17.6;60.5
68489;BME280;55481;48.764;8.936;2023-05-20T08:23:00;96920;;;17.1;62
68489;BME280;55481;48.764;8.936;2023-05-20T08:28:06;96940;;;17.2;62
68489;BME280;55481;48.764;8.936;2023-05-20T08:30:32;96940;;;17.1;62
68489;BME280;55481;48.764;8.936;2023-05-20T08:33:02;96950;;;17;62.5
68489;BME280;55481;48.764;8.936;2023-05-20T08:35:32;96940;;;17;62.5
68489;BME280;55481;48.764;8.936;2023-05-20T08:38:03;96940;;;17;62.5
68489;BME280;55481;48.764;8.936;2023-05-20T08:40:33;96950;;;16.9;62.5
68489;BME280;55481;48.764;8.936;2023-05-20T08:48:05;96940;;;17.3;62
68489;BME280;55481;48.764;8.936;2023-05-20T08:50:58;96950;;;17.2;62.5
68489;BME280;55481;48.764;8.936;2023-05-20T08:53:38;96960;;;17.2;62.5
68489;BME280;55481;48.764;8.936;2023-05-20T08:56:08;96950;;;17.2;62
68489;BME280;55481;48.764;8.936;2023-05-20T08:58:31;96940;;;17.5;61.5
68489;BME280;55481;48.764;8.936;2023-05-20T09:01:01;96940;;;17.9;61
68489;BME280;55481;48.764;8.936;2023-05-20T09:05:51;96930;;;18.3;60.5
68489;BME280;55481;48.764;8.936;2023-05-20T09:08:23;96930;;;18.4;60
68489;BME280;55481;48.764;8.936;2023-05-20T09:10:51;96930;;;18.4;60
68489;BME280;55481;48.764;8.936;2023-05-20T09:15:39;96930;;;18;61
68489;BME280;55481;48.764;8.936;2023-05-20T09:18:10;96920;;;17.9;61.5
68489;BME280;55481;48.764;8.936;2023-05-20T09:20:40;96920;;;17.9;61.5
68489;BME280;55481;48.764;8.936;2023-05-20T09:40:48;96910;;;18.6;61
68489;BME280;55481;48.764;8.936;2023-05-20T09:43:21;96910;;;18.4;61.5
68489;BME280;55481;48.764;8.936;2023-05-20T09:45:50;96910;;;18.4;61.5
68489;BME280;55481;48.764;8.936;2023-05-20T09:48:20;96910;;;18.6;60.5
68489;BME280;55481;48.764;8.936;2023-05-20T09:50:52;96900;;;19.2;59.5
68489;BME280;55481;48.764;8.936;2023-05-20T09:53:25;96900;;;19.5;58.5
68489;BME280;55481;48.764;8.936;2023-05-20T09:55:53;96900;;;19.2;59
68489;BME280;55481;48.764;8.936;2023-05-20T09:58:23;96900;;;18.8;60.5
68489;BME280;55481;48.764;8.936;2023-05-20T10:01:01;96900;;;18.9;60
68489;BME280;55481;48.764;8.936;2023-05-20T10:03:32;96900;;;18.7;60.5
68489;BME280;55481;48.764;8.936;2023-05-20T10:06:15;96900;;;18.7;60.5
68489;BME280;55481;48.764;8.936;2023-05-20T10:08:49;96900;;;18.8;60.5
68489;BME280;55481;48.764;8.936;2023-05-20T10:13:40;96880;;;19.6;58.5
68489;BME280;55481;48.764;8.936;2023-05-20T10:18:45;96880;;;19.2;59.5
68489;BME280;55481;48.764;8.936;2023-05-20T10:21:16;96880;;;19.7;59
68489;BME280;55481;48.764;8.936;2023-05-20T10:23:39;96880;;;20;58.5
68489;BME280;55481;48.764;8.936;2023-05-20T10:26:10;96880;;;19.7;59
68489;BME280;55481;48.764;8.936;2023-05-20T10:28:42;96880;;;19.8;59
68489;BME280;55481;48.764;8.936;2023-05-20T10:38:38;96870;;;19.9;59
68489;BME280;55481;48.764;8.936;2023-05-20T10:41:08;96870;;;20.3;58
68489;BME280;55481;48.764;8.936;2023-05-20T10:43:39;96860;;;20.7;57
68489;BME280;55481;48.764;8.936;2023-05-20T10:46:16;96870;;;20.6;57.5
68489;BME280;55481;48.764;8.936;2023-05-20T10:48:47;96870;;;20.1;58.5
68489;BME280;55481;48.764;8.936;2023-05-20T10:51:18;96870;;;20.2;58.5
68489;BME280;55481;48.764;8.936;2023-05-20T10:53:51;96860;;;19.9;59.5
68489;BME280;55481;48.764;8.936;2023-05-20T10:56:21;96870;;;19.9;59.5
68489;BME280;55481;48.764;8.936;2023-05-20T10:59:00;96850;;;20.8;57.5
68489;BME280;55481;48.764;8.936;2023-05-20T11:03:53;96840;;;22.6;53.5
68489;BME280;55481;48.764;8.936;2023-05-20T11:06:25;96840;;;22.8;53
68489;BME280;55481;48.764;8.936;2023-05-20T11:08:56;96840;;;23.7;51.5
68489;BME280;55481;48.764;8.936;2023-05-20T11:11:28;96840;;;24;51
68489;BME280;55481;48.764;8.936;2023-05-20T11:13:57;96830;;;24.4;51
68489;BME280;55481;48.764;8.936;2023-05-20T11:16:40;96820;;;24.5;50.5
68489;BME280;55481;48.764;8.936;2023-05-20T11:21:23;96810;;;25.7;49
68489;BME280;55481;48.764;8.936;2023-05-20T11:23:55;96810;;;25.7;49
68489;BME280;55481;48.764;8.936;2023-05-20T11:26:29;96810;;;25.3;50.5
68489;BME280;55481;48.764;8.936;2023-05-20T11:31:26;96820;;;23.9;54
68489;BME280;55481;48.764;8.936;2023-05-20T11:34:06;96810;;;23.9;54
68489;BME280;55481;48.764;8.936;2023-05-20T11:36:28;96820;;;23.5;55.5
68489;BME280;55481;48.764;8.936;2023-05-20T11:38:58;96820;;;22.9;56.5
68489;BME280;55481;48.764;8.936;2023-05-20T11:41:36;96820;;;23.2;55.5
68489;BME280;55481;48.764;8.936;2023-05-20T11:44:09;96820;;;22.7;57
68489;BME280;55481;48.764;8.936;2023-05-20T11:46:40;96810;;;23.8;54.5
68489;BME280;55481;48.764;8.936;2023-05-20T11:49:09;96800;;;25.1;51.5
68489;BME280;55481;48.764;8.936;2023-05-20T11:51:40;96800;;;24.1;53.5
68489;BME280;55481;48.764;8.936;2023-05-20T11:54:17;96810;;;23.6;54.5
68489;BME280;55481;48.764;8.936;2023-05-20T12:01:50;96790;;;24.9;52
68489;BME280;55481;48.764;8.936;2023-05-20T12:04:20;96790;;;25.1;51.5
68489;BME280;55481;48.764;8.936;2023-05-20T12:09:14;96780;;;25;52
68489;BME280;55481;48.764;8.936;2023-05-20T12:11:45;96780;;;26.2;50
68489;BME280;55481;48.764;8.936;2023-05-20T12:14:15;96790;;;25.2;52
68489;BME280;55481;48.764;8.936;2023-05-20T12:16:46;96790;;;24.8;53
68489;BME280;55481;48.764;8.936;2023-05-20T12:21:54;96790;;;23.7;55
68489;BME280;55481;48.764;8.936;2023-05-20T12:27:08;96780;;;23.2;56
68489;BME280;55481;48.764;8.936;2023-05-20T12:29:26;96780;;;22.7;56.5
68489;BME280;55481;48.764;8.936;2023-05-20T12:34:20;96770;;;25.5;50.5
68489;BME280;55481;48.764;8.936;2023-05-20T12:36:50;96770;;;25.5;51
68489;BME280;55481;48.764;8.936;2023-05-20T12:39:21;96770;;;25.1;52
68489;BME280;55481;48.764;8.936;2023-05-20T12:41:52;96770;;;24.8;53
68489;BME280;55481;48.764;8.936;2023-05-20T12:44:23;96780;;;24.3;54
68489;BME280;55481;48.764;8.936;2023-05-20T12:46:54;96780;;;23.6;55.5
68489;BME280;55481;48.764;8.936;2023-05-20T12:49:32;96780;;;23.4;55.5
68489;BME280;55481;48.764;8.936;2023-05-20T12:56:58;96760;;;27.4;47.5
68489;BME280;55481;48.764;8.936;2023-05-20T12:59:36;96760;;;25.3;51.5
68489;BME280;55481;48.764;8.936;2023-05-20T13:02:00;96750;;;25.3;52
68489;BME280;55481;48.764;8.936;2023-05-20T13:04:31;96760;;;25.4;51.5
68489;BME280;55481;48.764;8.936;2023-05-20T13:07:02;96750;;;24.6;53
68489;BME280;55481;48.764;8.936;2023-05-20T13:09:33;96760;;;24.6;53
68489;BME280;55481;48.764;8.936;2023-05-20T13:12:05;96750;;;24.1;53.5
68489;BME280;55481;48.764;8.936;2023-05-20T13:14:35;96760;;;23.9;54
68489;BME280;55481;48.764;8.936;2023-05-20T13:17:10;96770;;;23.5;54.5
68489;BME280;55481;48.764;8.936;2023-05-20T13:19:44;96750;;;22.9;55.5
68489;BME280;55481;48.764;8.936;2023-05-20T13:22:15;96750;;;23.1;55.5
68489;BME280;55481;48.764;8.936;2023-05-20T13:27:10;96740;;;24.6;51.5
68489;BME280;55481;48.764;8.936;2023-05-20T13:29:45;96730;;;24.2;52.5
68489;BME280;55481;48.764;8.936;2023-05-20T13:32:18;96740;;;23.4;54
68489;BME280;55481;48.764;8.936;2023-05-20T13:34:49;96750;;;23.7;54
68489;BME280;55481;48.764;8.936;2023-05-20T13:37:25;96740;;;24.1;53
68489;BME280;55481;48.764;8.936;2023-05-20T13:40:02;96740;;;23.9;53
68489;BME280;55481;48.764;8.936;2023-05-20T13:42:13;96740;;;23.6;53.5
68489;BME280;55481;48.764;8.936;2023-05-20T13:44:44;96740;;;23.5;53.5
68489;BME280;55481;48.764;8.936;2023-05-20T13:47:15;96730;;;24.3;52
68489;BME280;55481;48.764;8.936;2023-05-20T13:52:09;96730;;;23.6;53.5
68489;BME280;55481;48.764;8.936;2023-05-20T13:54:40;96710;;;24.7;51.5
68489;BME280;55481;48.764;8.936;2023-05-20T13:57:12;96710;;;25.3;50.5
68489;BME280;55481;48.764;8.936;2023-05-20T14:04:43;96700;;;27.8;46.5
68489;BME280;55481;48.764;8.936;2023-05-20T14:07:14;96710;;;26.2;49.5
68489;BME280;55481;48.764;8.936;2023-05-20T14:12:28;96690;;;26.8;49
68489;BME280;55481;48.764;8.936;2023-05-20T14:14:58;96680;;;28.1;46
68489;BME280;55481;48.764;8.936;2023-05-20T14:19:52;96680;;;28.4;46
68489;BME280;55481;48.764;8.936;2023-05-20T14:22:23;96680;;;27.8;47
68489;BME280;55481;48.764;8.936;2023-05-20T14:24:54;96680;;;26.9;49
68489;BME280;55481;48.764;8.936;2023-05-20T14:27:25;96680;;;27;49
68489;BME280;55481;48.764;8.936;2023-05-20T14:30:09;96670;;;26.9;49
68489;BME280;55481;48.764;8.936;2023-05-20T14:32:32;96670;;;25.8;51
68489;BME280;55481;48.764;8.936;2023-05-20T14:37:26;96680;;;24.4;53.5
68489;BME280;55481;48.764;8.936;2023-05-20T14:39:57;96680;;;24;54
68489;BME280;55481;48.764;8.936;2023-05-20T14:42:28;96670;;;25.8;50.5
68489;BME280;55481;48.764;8.936;2023-05-20T14:44:59;96670;;;26.5;48.5
68489;BME280;55481;48.764;8.936;2023-05-20T14:47:29;96680;;;25.5;50.5
68489;BME280;55481;48.764;8.936;2023-05-20T14:50:01;96680;;;24.6;52
68489;BME280;55481;48.764;8.936;2023-05-20T15:04:59;96680;;;23.5;53.5
68489;BME280;55481;48.764;8.936;2023-05-20T15:07:30;96680;;;23.1;54
68489;BME280;55481;48.764;8.936;2023-05-20T15:10:00;96690;;;22.8;54.5
68489;BME280;55481;48.764;8.936;2023-05-20T15:20:04;96690;;;22.6;53.5
68489;BME280;55481;48.764;8.936;2023-05-20T15:22:34;96700;;;22.6;53.5
68489;BME280;55481;48.764;8.936;2023-05-20T15:25:05;96690;;;23;52.5
68489;BME280;55481;48.764;8.936;2023-05-20T15:27:37;96690;;;23.3;52
68489;BME280;55481;48.764;8.936;2023-05-20T15:30:07;96690;;;23.3;52
68489;BME280;55481;48.764;8.936;2023-05-20T15:32:37;96680;;;23.4;52
68489;BME280;55481;48.764;8.936;2023-05-20T15:35:08;96680;;;23.2;52
68489;BME280;55481;48.764;8.936;2023-05-20T15:37:39;96690;;;23.3;52
68489;BME280;55481;48.764;8.936;2023-05-20T15:45:11;96690;;;23.5;52
68489;BME280;55481;48.764;8.936;2023-05-20T15:48:02;96690;;;23.2;52.5
68489;BME280;55481;48.764;8.936;2023-05-20T15:52:50;96690;;;22.8;53
68489;BME280;55481;48.764;8.936;2023-05-20T15:55:20;96690;;;22.8;53
68489;BME280;55481;48.764;8.936;2023-05-20T16:00:14;96690;;;22.3;54
68489;BME280;55481;48.764;8.936;2023-05-20T16:02:46;96680;;;22.1;54
68489;BME280;55481;48.764;8.936;2023-05-20T16:05:16;96680;;;22.1;54
68489;BME280;55481;48.764;8.936;2023-05-20T16:10:18;96690;;;22.4;53.5
68489;BME280;55481;48.764;8.936;2023-05-20T16:12:50;96690;;;22.4;53
68489;BME280;55481;48.764;8.936;2023-05-20T16:17:56;96680;;;22.6;52.5
68489;BME280;55481;48.764;8.936;2023-05-20T16:20:27;96680;;;22.5;52.5
68489;BME280;55481;48.764;8.936;2023-05-20T16:25:22;96680;;;22.5;53
68489;BME280;55481;48.764;8.936;2023-05-20T16:30:23;96670;;;22.2;53.5
68489;BME280;55481;48.764;8.936;2023-05-20T16:32:54;96670;;;22.1;53.5
68489;BME280;55481;48.764;8.936;2023-05-20T16:40:27;96680;;;21.9;54
68489;BME280;55481;48.764;8.936;2023-05-20T16:42:57;96670;;;21.9;53.5
68489;BME280;55481;48.764;8.936;2023-05-20T16:45:35;96680;;;21.9;53.5
68489;BME280;55481;48.764;8.936;2023-05-20T16:48:06;96680;;;22.1;53
68489;BME280;55481;48.764;8.936;2023-05-20T16:50:37;96670;;;22;53.5
68489;BME280;55481;48.764;8.936;2023-05-20T16:53:01;96670;;;22;53.5
68489;BME280;55481;48.764;8.936;2023-05-20T16:55:32;96670;;;21.8;53.5
68489;BME280;55481;48.764;8.936;2023-05-20T16:58:02;96670;;;21.8;54
68489;BME280;55481;48.764;8.936;2023-05-20T17:00:33;96680;;;21.6;54
68489;BME280;55481;48.764;8.936;2023-05-20T17:08:05;96690;;;21.5;54
68489;BME280;55481;48.764;8.936;2023-05-20T17:10:36;96690;;;21.4;54.5
68489;BME280;55481;48.764;8.936;2023-05-20T17:13:14;96700;;;21.4;54.5
68489;BME280;55481;48.764;8.936;2023-05-20T17:15:45;96700;;;21.3;54.5
68489;BME280;55481;48.764;8.936;2023-05-20T17:18:15;96700;;;21.2;54.5
68489;BME280;55481;48.764;8.936;2023-05-20T17:20:46;96710;;;21.1;54.5
68489;BME280;55481;48.764;8.936;2023-05-20T17:23:19;96720;;;21.1;54.5
68489;BME280;55481;48.764;8.936;2023-05-20T17:25:48;96720;;;21;54.5
68489;BME280;55481;48.764;8.936;2023-05-20T17:33:14;96720;;;20.8;55
68489;BME280;55481;48.764;8.936;2023-05-20T17:35:44;96720;;;20.7;55
68489;BME280;55481;48.764;8.936;2023-05-20T17:38:15;96720;;;20.7;55
68489;BME280;55481;48.764;8.936;2023-05-20T17:40:46;96720;;;20.7;55
68489;BME280;55481;48.764;8.936;2023-05-20T17:43:17;96730;;;20.6;55
68489;BME280;55481;48.764;8.936;2023-05-20T17:45:47;96720;;;20.5;55
68489;BME280;55481;48.764;8.936;2023-05-20T17:48:25;96730;;;20.5;55.5
68489;BME280;55481;48.764;8.936;2023-05-20T17:50:56;96730;;;20.4;55.5
68489;BME280;55481;48.764;8.936;2023-05-20T17:53:27;96730;;;20.3;55.5
68489;BME280;55481;48.764;8.936;2023-05-20T17:55:58;96730;;;20.2;55.5
68489;BME280;55481;48.764;8.936;2023-05-20T18:03:24;96730;;;20.1;55.5
68489;BME280;55481;48.764;8.936;2023-05-20T18:05:55;96730;;;20.1;55.5
68489;BME280;55481;48.764;8.936;2023-05-20T18:08:26;96730;;;20;55.5
68489;BME280;55481;48.764;8.936;2023-05-20T18:10:56;96730;;;20;55.5
68489;BME280;55481;48.764;8.936;2023-05-20T18:16:04;96730;;;19.9;55.5
68489;BME280;55481;48.764;8.936;2023-05-20T18:18:35;96730;;;19.8;56
68489;BME280;55481;48.764;8.936;2023-05-20T18:21:06;96730;;;19.8;56
68489;BME280;55481;48.764;8.936;2023-05-20T18:23:37;96730;;;19.7;56
68489;BME280;55481;48.764;8.936;2023-05-20T18:26:08;96730;;;19.7;56
68489;BME280;55481;48.764;8.936;2023-05-20T18:33:33;96720;;;19.5;56
68489;BME280;55481;48.764;8.936;2023-05-20T18:36:04;96730;;;19.4;56.5
68489;BME280;55481;48.764;8.936;2023-05-20T18:38:35;96720;;;19.3;56.5
68489;BME280;55481;48.764;8.936;2023-05-20T18:41:05;96730;;;19.3;56.5
68489;BME280;55481;48.764;8.936;2023-05-20T18:43:43;96730;;;19.2;56.5
68489;BME280;55481;48.764;8.936;2023-05-20T18:46:14;96720;;;19.2;56.5
68489;BME280;55481;48.764;8.936;2023-05-20T18:51:09;96730;;;19.1;56.5
68489;BME280;55481;48.764;8.936;2023-05-20T18:53:40;96730;;;19;57
68489;BME280;55481;48.764;8.936;2023-05-20T19:03:43;96730;;;18.8;57
68489;BME280;55481;48.764;8.936;2023-05-20T19:06:14;96730;;;18.7;57
68489;BME280;55481;48.764;8.936;2023-05-20T19:08:45;96740;;;18.7;57
68489;BME280;55481;48.764;8.936;2023-05-20T19:11:15;96730;;;18.7;57
68489;BME280;55481;48.764;8.936;2023-05-20T19:13:52;96730;;;18.7;57
68489;BME280;55481;48.764;8.936;2023-05-20T19:16:24;96730;;;18.6;57